Time;durP1;ratioP1;P1;durP2;ratioP2;P2;SDS_P1;SDS_P2;PMS_P1;PMS_P2;Temp;Humidity;BMP_temperature;BMP_pressure;BME280_temperature;BME280_humidity;BME280_pressure;Samples;Min_cycle;Max_cycle;Signal;HPM_P1;HPM_P2
2022/05/24 00:01:15;;;;;;;;;;;16.30;99.90;;;;;;5064061;28;20123;-69
2022/05/24 00:03:42;;;;;;;;;;;16.30;99.90;;;;;;5063810;28;19921;-69
2022/05/24 00:06:10;;;;;;;;;;;16.30;99.90;;;;;;5063147;28;19921;-69
2022/05/24 00:08:37;;;;;;;;;;;16.30;99.90;;;;;;5063781;28;19927;-69
2022/05/24 00:11:03;;;;;;;;;;;16.30;99.90;;;;;;5063599;28;20000;-69
2022/05/24 00:13:30;;;;;;;;;;;16.30;99.90;;;;;;5063509;28;19928;-69
2022/05/24 00:15:56;;;;;;;;;;;16.30;99.90;;;;;;5062961;28;19929;-69
2022/05/24 00:18:25;;;;;;;;;;;16.30;99.90;;;;;;5056257;28;19925;-69
2022/05/24 00:20:52;;;;;;;;;;;16.30;99.90;;;;;;5059402;28;19921;-69
2022/05/24 00:23:22;;;;;;;;;;;16.30;99.90;;;;;;5063381;28;19944;-69
2022/05/24 00:25:49;;;;;;;;;;;16.30;99.90;;;;;;5062460;28;19921;-69
2022/05/24 00:28:17;;;;;;;;;;;16.30;99.90;;;;;;5063845;28;19920;-69
2022/05/24 00:30:44;;;;;;;;;;;16.40;99.90;;;;;;5063327;28;19921;-69
2022/05/24 00:33:11;;;;;;;;;;;16.30;99.90;;;;;;5055402;28;19930;-69
2022/05/24 00:35:37;;;;;;;;;;;16.30;99.90;;;;;;5062960;28;19927;-69
2022/05/24 00:38:06;;;;;;;;;;;16.30;99.90;;;;;;5063055;28;20132;-69
2022/05/24 00:40:39;;;;;;;;;;;16.40;99.90;;;;;;5063242;28;19927;-69
2022/05/24 00:43:09;;;;;;;;;;;16.30;99.90;;;;;;5061365;28;19959;-69
2022/05/24 00:45:38;;;;;;;;;;;16.40;99.90;;;;;;5062442;28;19920;-69
2022/05/24 00:48:05;;;;;;;;;;;16.40;99.90;;;;;;5062832;28;20204;-69
2022/05/24 00:50:33;;;;;;;;;;;16.30;99.90;;;;;;5063138;28;19927;-69
2022/05/24 00:53:01;;;;;;;;;;;16.30;99.90;;;;;;5063279;28;19929;-69
2022/05/24 00:55:30;;;;;;;;;;;16.40;99.90;;;;;;5062330;28;19920;-69
2022/05/24 00:58:03;;;;;;;;;;;16.30;99.90;;;;;;5063451;28;19929;-69
2022/05/24 01:00:29;;;;;;;;;;;16.30;99.90;;;;;;5067214;28;20204;-69
2022/05/24 01:02:56;;;;;;;;;;;16.30;99.90;;;;;;5067269;28;19927;-69
2022/05/24 01:05:24;;;;;;;;;;;16.30;99.90;;;;;;5066958;28;19929;-68
2022/05/24 01:07:51;;;;;;;;;;;16.30;99.90;;;;;;5067242;28;19928;-69
2022/05/24 01:10:21;;;;;;;;;;;16.30;99.90;;;;;;5064101;28;20212;-69
2022/05/24 01:12:49;;;;;;;;;;;16.20;99.90;;;;;;5062343;28;19921;-69
2022/05/24 01:15:17;;;;;;;;;;;16.20;99.90;;;;;;5066358;28;19921;-69
2022/05/24 01:17:44;;;;;;;;;;;16.10;99.90;;;;;;5066582;28;20112;-69
2022/05/24 01:20:11;;;;;;;;;;;16.20;99.90;;;;;;5067211;28;19943;-69
2022/05/24 01:22:45;;;;;;;;;;;16.10;99.90;;;;;;5066784;28;20209;-69
2022/05/24 01:25:17;;;;;;;;;;;16.10;99.90;;;;;;5066376;28;19927;-69
2022/05/24 01:27:44;;;;;;;;;;;16.10;99.90;;;;;;5066436;28;19927;-69
2022/05/24 01:30:12;;;;;;;;;;;16.00;99.90;;;;;;5066613;28;19921;-69
2022/05/24 01:38:24;;;;;;;;;;;15.80;99.90;;;;;;5044851;28;19979;-69
2022/05/24 01:40:52;;;;;;;;;;;15.80;99.90;;;;;;5044668;28;19960;-69
2022/05/24 01:43:22;;;;;;;;;;;15.70;99.90;;;;;;5051911;28;19921;-69
2022/05/24 01:45:50;;;;;;;;;;;15.60;99.90;;;;;;5065811;28;19928;-69
2022/05/24 01:48:18;;;;;;;;;;;15.60;99.90;;;;;;5066800;28;19929;-69
2022/05/24 01:50:46;;;;;;;;;;;15.60;99.90;;;;;;5066370;28;19925;-69
2022/05/24 01:53:15;;;;;;;;;;;15.60;99.90;;;;;;5064622;28;19936;-69
2022/05/24 01:55:44;;;;;;;;;;;15.60;99.90;;;;;;5065770;28;19927;-69
2022/05/24 01:58:12;;;;;;;;;;;15.60;99.90;;;;;;5066130;28;20151;-69
2022/05/24 02:00:41;;;;;;;;;;;15.50;99.90;;;;;;5065992;28;19920;-69
2022/05/24 02:03:08;;;;;;;;;;;15.50;99.90;;;;;;5065963;28;19928;-69
2022/05/24 02:05:36;;;;;;;;;;;15.50;99.90;;;;;;5065310;28;20239;-69
2022/05/24 02:08:03;;;;;;;;;;;15.40;99.90;;;;;;5065919;28;20295;-69
2022/05/24 02:10:32;;;;;;;;;;;15.30;99.90;;;;;;5065971;28;19920;-69
2022/05/24 02:13:00;;;;;;;;;;;15.30;99.90;;;;;;5066223;28;19928;-69
2022/05/24 02:15:29;;;;;;;;;;;15.30;99.90;;;;;;5050925;28;19921;-69
2022/05/24 02:18:00;;;;;;;;;;;15.30;99.90;;;;;;5065968;28;19920;-69
2022/05/24 02:20:29;;;;;;;;;;;15.30;99.90;;;;;;5065643;28;19921;-69
2022/05/24 02:22:56;;;;;;;;;;;15.30;99.90;;;;;;5065825;28;19988;-69
2022/05/24 02:25:26;;;;;;;;;;;15.20;99.90;;;;;;5065182;28;19935;-69
2022/05/24 02:27:53;;;;;;;;;;;15.20;99.90;;;;;;5065613;28;19928;-69
2022/05/24 02:30:21;;;;;;;;;;;15.20;99.90;;;;;;5065849;28;19963;-69
2022/05/24 02:32:48;;;;;;;;;;;15.20;99.90;;;;;;5065299;28;19929;-69
2022/05/24 02:35:16;;;;;;;;;;;15.20;99.90;;;;;;5065106;28;19928;-69
2022/05/24 02:37:43;;;;;;;;;;;15.20;99.90;;;;;;5065680;28;19927;-69
2022/05/24 02:42:55;;;;;;;;;;;15.10;99.90;;;;;;5065276;28;20124;-69
2022/05/24 02:45:21;;;;;;;;;;;15.20;99.90;;;;;;5064611;28;19925;-69
2022/05/24 02:47:48;;;;;;;;;;;15.10;99.90;;;;;;5065200;28;19928;-69
2022/05/24 02:50:17;;;;;;;;;;;15.10;99.90;;;;;;5065492;28;19920;-69
2022/05/24 02:52:43;;;;;;;;;;;15.00;99.90;;;;;;5064908;28;20234;-68
2022/05/24 02:55:10;;;;;;;;;;;15.00;99.90;;;;;;5064792;28;20226;-68
2022/05/24 02:57:37;;;;;;;;;;;15.00;99.90;;;;;;5064954;28;19927;-69
2022/05/24 03:00:05;;;;;;;;;;;15.00;99.90;;;;;;5064963;28;19927;-69
2022/05/24 03:02:31;;;;;;;;;;;15.00;99.90;;;;;;5065418;28;20112;-69
2022/05/24 03:05:00;;;;;;;;;;;14.90;99.90;;;;;;5064602;28;20136;-69
2022/05/24 03:10:12;;;;;;;;;;;14.80;99.90;;;;;;5063028;28;19967;-69
2022/05/24 03:15:23;;;;;;;;;;;14.90;99.90;;;;;;5044643;28;19963;-69
2022/05/24 03:17:49;;;;;;;;;;;14.90;99.90;;;;;;5044917;28;19925;-69
2022/05/24 03:20:16;;;;;;;;;;;14.90;99.90;;;;;;5044832;28;20232;-69
2022/05/24 03:22:44;;;;;;;;;;;15.00;99.90;;;;;;5044265;28;20201;-69
2022/05/24 03:25:11;;;;;;;;;;;15.00;99.90;;;;;;5048239;28;19935;-69
2022/05/24 03:27:37;;;;;;;;;;;15.00;99.90;;;;;;5064547;28;19991;-69
2022/05/24 03:30:04;;;;;;;;;;;15.00;99.90;;;;;;5064460;28;20220;-69
2022/05/24 03:32:31;;;;;;;;;;;15.00;99.90;;;;;;5064544;28;19920;-69
2022/05/24 03:34:58;;;;;;;;;;;15.00;99.90;;;;;;5063943;28;19927;-68
2022/05/24 03:37:24;;;;;;;;;;;14.90;99.90;;;;;;5063695;28;19921;-69
2022/05/24 03:39:52;;;;;;;;;;;14.90;99.90;;;;;;5064380;28;19924;-69
2022/05/24 03:42:19;;;;;;;;;;;14.90;99.90;;;;;;5064242;28;20112;-69
2022/05/24 03:44:45;;;;;;;;;;;14.90;99.90;;;;;;5063859;28;20112;-69
2022/05/24 03:47:12;;;;;;;;;;;14.90;99.90;;;;;;5063832;28;19920;-69
2022/05/24 03:49:38;;;;;;;;;;;14.90;99.90;;;;;;5064524;28;19995;-69
2022/05/24 03:52:05;;;;;;;;;;;15.00;99.90;;;;;;5063934;28;19925;-69
2022/05/24 03:54:32;;;;;;;;;;;14.90;99.90;;;;;;5063967;28;19924;-69
2022/05/24 03:59:44;;;;;;;;;;;14.90;99.90;;;;;;5064042;28;19927;-69
2022/05/24 04:02:11;;;;;;;;;;;14.90;99.90;;;;;;5063952;28;19927;-69
2022/05/24 04:04:37;;;;;;;;;;;14.90;99.90;;;;;;5058438;28;19921;-69
2022/05/24 04:07:04;;;;;;;;;;;15.00;99.90;;;;;;5060242;28;19929;-69
2022/05/24 04:09:32;;;;;;;;;;;14.90;99.90;;;;;;5061501;28;19921;-69
2022/05/24 04:11:59;;;;;;;;;;;14.90;99.90;;;;;;5057476;28;19921;-69
2022/05/24 04:14:28;;;;;;;;;;;15.00;99.90;;;;;;5059098;28;19920;-69
2022/05/24 04:16:55;;;;;;;;;;;15.00;99.90;;;;;;5060940;28;19927;-69
2022/05/24 04:19:22;;;;;;;;;;;15.00;99.90;;;;;;5063516;28;19928;-68
2022/05/24 04:21:49;;;;;;;;;;;15.00;99.90;;;;;;5063655;28;19927;-69
2022/05/24 04:24:15;;;;;;;;;;;15.00;99.90;;;;;;5063501;28;19927;-69
2022/05/24 04:26:42;;;;;;;;;;;15.00;99.90;;;;;;5062045;28;19928;-69
2022/05/24 04:29:08;;;;;;;;;;;15.10;99.90;;;;;;5063478;28;20090;-69
2022/05/24 04:31:36;;;;;;;;;;;15.20;99.90;;;;;;5063200;28;19928;-68
2022/05/24 04:34:03;;;;;;;;;;;15.20;99.90;;;;;;5062782;28;19920;-68
2022/05/24 04:36:31;;;;;;;;;;;15.30;99.90;;;;;;5062269;28;20163;-68
2022/05/24 04:38:58;;;;;;;;;;;15.30;99.90;;;;;;5062789;28;20319;-68
2022/05/24 04:44:09;;;;;;;;;;;15.30;99.90;;;;;;5062987;28;20108;-68
2022/05/24 04:49:23;;;;;;;;;;;15.30;99.90;;;;;;5063662;28;19959;-67
2022/05/24 04:51:52;;;;;;;;;;;15.30;99.90;;;;;;5063494;28;19920;-68
2022/05/24 04:54:19;;;;;;;;;;;15.30;99.90;;;;;;5063646;28;19920;-68
2022/05/24 04:56:46;;;;;;;;;;;15.30;99.90;;;;;;5062411;28;19935;-68
2022/05/24 04:59:13;;;;;;;;;;;15.30;99.90;;;;;;5063419;28;19962;-68
2022/05/24 05:01:40;;;;;;;;;;;15.30;99.90;;;;;;5063668;28;19921;-68
2022/05/24 05:04:09;;;;;;;;;;;15.30;99.90;;;;;;5061081;28;19952;-68
2022/05/24 05:06:36;;;;;;;;;;;15.20;99.90;;;;;;5043744;28;20113;-68
2022/05/24 05:09:03;;;;;;;;;;;15.30;99.90;;;;;;5063599;28;20279;-67
2022/05/24 05:11:29;;;;;;;;;;;15.30;99.90;;;;;;5063031;28;19921;-68
2022/05/24 05:13:56;;;;;;;;;;;15.30;99.90;;;;;;5063383;28;19921;-66
2022/05/24 05:16:22;;;;;;;;;;;15.30;99.90;;;;;;5062350;28;20139;-66
2022/05/24 05:18:50;;;;;;;;;;;15.30;99.90;;;;;;5063543;28;19936;-66
2022/05/24 05:21:17;;;;;;;;;;;15.30;99.90;;;;;;5063247;28;19921;-66
2022/05/24 05:23:49;;;;;;;;;;;15.30;99.90;;;;;;5057987;28;19927;-66
2022/05/24 05:26:16;;;;;;;;;;;15.30;99.90;;;;;;5062687;28;19921;-66
2022/05/24 05:28:42;;;;;;;;;;;15.40;99.90;;;;;;5063389;28;19921;-66
2022/05/24 05:31:17;;;;;;;;;;;15.40;99.90;;;;;;5063157;28;20362;-66
2022/05/24 05:33:43;;;;;;;;;;;15.50;99.90;;;;;;5063045;28;19967;-66
2022/05/24 05:36:12;;;;;;;;;;;15.50;99.90;;;;;;5062505;28;20111;-66
2022/05/24 05:38:44;;;;;;;;;;;15.60;99.90;;;;;;5061026;28;19927;-66
2022/05/24 05:41:10;;;;;;;;;;;15.60;99.90;;;;;;5063239;28;19920;-66
2022/05/24 05:46:05;;;;;;;;;;;15.70;99.90;;;;;;5081175;28;19920;-68
2022/05/24 05:48:32;;;;;;;;;;;15.70;99.90;;;;;;5066768;28;19927;-70
2022/05/24 05:50:58;;;;;;;;;;;15.60;99.90;;;;;;5066155;28;19928;-68
2022/05/24 05:53:27;;;;;;;;;;;15.60;99.90;;;;;;5073168;28;19920;-70
2022/05/24 05:55:53;;;;;;;;;;;15.60;99.90;;;;;;5086021;28;19927;-68
2022/05/24 05:58:20;;;;;;;;;;;15.50;99.90;;;;;;5085486;28;19930;-69
2022/05/24 06:00:48;;;;;;;;;;;15.50;99.90;;;;;;5085429;28;19920;-67
2022/05/24 06:03:14;;;;;;;;;;;15.50;99.90;;;;;;5086184;28;19920;-68
2022/05/24 06:05:41;;;;;;;;;;;15.60;99.90;;;;;;5085616;28;19920;-68
2022/05/24 06:08:08;;;;;;;;;;;15.60;99.90;;;;;;5085897;28;19920;-68
2022/05/24 06:10:37;;;;;;;;;;;15.60;99.90;;;;;;5082362;28;19920;-67
2022/05/24 06:13:04;;;;;;;;;;;15.60;99.90;;;;;;5085801;28;19966;-68
2022/05/24 06:15:31;;;;;;;;;;;15.60;99.90;;;;;;5085307;28;19970;-68
2022/05/24 06:17:58;;;;;;;;;;;15.60;99.90;;;;;;5085858;28;19966;-68
2022/05/24 06:20:27;;;;;;;;;;;15.70;99.90;;;;;;5085939;28;19920;-68
2022/05/24 06:22:55;;;;;;;;;;;15.80;99.90;;;;;;5084007;28;19920;-68
2022/05/24 06:25:22;;;;;;;;;;;15.90;99.90;;;;;;5085222;28;20175;-68
2022/05/24 06:27:51;;;;;;;;;;;15.90;99.90;;;;;;5085843;28;19927;-68
2022/05/24 06:30:20;;;;;;;;;;;16.00;99.90;;;;;;5085126;28;19979;-67
2022/05/24 06:32:46;;;;;;;;;;;16.10;99.90;;;;;;5085507;28;20208;-67
2022/05/24 06:35:13;;;;;;;;;;;16.10;99.90;;;;;;5082800;28;19924;-70
2022/05/24 06:37:40;;;;;;;;;;;16.10;99.90;;;;;;5085676;28;19920;-67
2022/05/24 06:40:08;;;;;;;;;;;16.10;99.90;;;;;;5085993;28;19920;-70
2022/05/24 06:42:34;;;;;;;;;;;16.10;99.90;;;;;;5085656;28;19920;-68
2022/05/24 06:45:02;;;;;;;;;;;16.10;99.90;;;;;;5082693;28;19921;-67
2022/05/24 06:47:29;;;;;;;;;;;16.00;99.90;;;;;;5085133;28;20081;-68
2022/05/24 06:49:56;;;;;;;;;;;16.00;99.90;;;;;;5085512;28;19928;-68
2022/05/24 06:52:23;;;;;;;;;;;16.10;99.90;;;;;;5085405;28;19951;-68
2022/05/24 06:54:49;;;;;;;;;;;16.10;99.90;;;;;;5085232;28;19921;-68
2022/05/24 06:57:16;;;;;;;;;;;16.10;99.90;;;;;;5084066;28;19921;-68
2022/05/24 07:02:28;;;;;;;;;;;16.20;99.90;;;;;;5081673;28;19991;-68
2022/05/24 07:04:58;;;;;;;;;;;16.30;99.90;;;;;;5075405;28;19927;-67
2022/05/24 07:07:25;;;;;;;;;;;16.30;99.90;;;;;;5082401;28;19921;-67
2022/05/24 07:09:53;;;;;;;;;;;16.30;99.90;;;;;;5078522;28;20162;-68
2022/05/24 07:12:20;;;;;;;;;;;16.30;99.90;;;;;;5073522;28;19927;-68
2022/05/24 07:14:47;;;;;;;;;;;16.20;99.90;;;;;;5077530;28;19932;-71
2022/05/24 07:17:14;;;;;;;;;;;16.20;99.90;;;;;;5081644;28;20103;-68
2022/05/24 07:19:42;;;;;;;;;;;16.30;99.90;;;;;;5064266;28;20216;-68
2022/05/24 07:22:10;;;;;;;;;;;16.30;99.90;;;;;;5062282;28;19928;-68
2022/05/24 07:24:37;;;;;;;;;;;16.30;99.90;;;;;;5068031;28;19920;-69
2022/05/24 07:27:07;;;;;;;;;;;16.30;99.90;;;;;;5080892;28;19978;-67
2022/05/24 07:29:33;;;;;;;;;;;16.40;99.90;;;;;;5084022;28;19920;-68
2022/05/24 07:32:00;;;;;;;;;;;16.40;99.90;;;;;;5083189;28;19927;-67
2022/05/24 07:34:26;;;;;;;;;;;16.50;99.90;;;;;;5084027;28;19927;-68
2022/05/24 07:36:54;;;;;;;;;;;16.50;99.90;;;;;;5083201;28;20111;-68
2022/05/24 07:39:21;;;;;;;;;;;16.60;99.90;;;;;;5084217;28;19927;-68
2022/05/24 07:47:30;;;;;;;;;;;16.70;99.90;;;;;;5082844;28;19984;-68
2022/05/24 07:49:57;;;;;;;;;;;16.80;99.90;;;;;;5083883;28;19921;-69
2022/05/24 07:52:25;;;;;;;;;;;16.80;99.90;;;;;;5083361;28;20237;-68
2022/05/24 07:54:52;;;;;;;;;;;16.80;99.90;;;;;;5083691;28;20046;-67
2022/05/24 07:57:19;;;;;;;;;;;16.90;99.90;;;;;;5083259;28;19983;-68
2022/05/24 07:59:47;;;;;;;;;;;16.80;99.90;;;;;;5083971;28;19920;-68
2022/05/24 08:02:16;;;;;;;;;;;16.80;99.90;;;;;;5075236;28;20213;-68
2022/05/24 08:04:44;;;;;;;;;;;16.80;99.90;;;;;;5063317;28;19920;-68
2022/05/24 08:07:10;;;;;;;;;;;16.90;99.90;;;;;;5082606;28;19920;-67
2022/05/24 08:09:39;;;;;;;;;;;16.90;99.90;;;;;;5079831;28;20089;-68
2022/05/24 08:12:06;;;;;;;;;;;16.90;99.90;;;;;;5063846;28;19920;-69
2022/05/24 08:14:33;;;;;;;;;;;16.90;99.90;;;;;;5062330;28;20254;-68
2022/05/24 08:16:59;;;;;;;;;;;16.90;99.90;;;;;;5063111;28;19927;-67
2022/05/24 08:19:26;;;;;;;;;;;16.80;99.90;;;;;;5082791;28;19920;-69
2022/05/24 08:21:52;;;;;;;;;;;16.80;99.90;;;;;;5083379;28;19921;-68
2022/05/24 08:24:19;;;;;;;;;;;16.80;99.90;;;;;;5082819;28;20212;-67
2022/05/24 08:26:47;;;;;;;;;;;16.70;99.90;;;;;;5079887;28;19928;-68
2022/05/24 08:29:13;;;;;;;;;;;16.70;99.90;;;;;;5083218;28;19920;-68
2022/05/24 08:31:40;;;;;;;;;;;16.70;99.90;;;;;;5083512;28;19950;-68
2022/05/24 08:34:07;;;;;;;;;;;16.60;99.90;;;;;;5083365;28;19995;-68
2022/05/24 08:36:35;;;;;;;;;;;16.60;99.90;;;;;;5082544;28;19921;-68
2022/05/24 08:39:02;;;;;;;;;;;16.60;99.90;;;;;;5081271;28;19986;-68
2022/05/24 08:41:30;;;;;;;;;;;16.60;99.90;;;;;;5083432;28;20171;-67
2022/05/24 08:49:44;;;;;;;;;;;14.90;99.90;;;;;;5083063;28;20164;-68
2022/05/24 08:52:14;;;;;;;;;;;14.40;99.90;;;;;;5080810;28;19944;-69
2022/05/24 08:54:43;;;;;;;;;;;14.30;99.90;;;;;;5083700;28;19924;-66
2022/05/24 08:57:11;;;;;;;;;;;14.30;99.90;;;;;;5083284;28;19927;-68
2022/05/24 08:59:43;;;;;;;;;;;14.20;99.90;;;;;;5083800;28;19921;-67
2022/05/24 09:02:10;;;;;;;;;;;14.10;99.90;;;;;;5070152;28;20139;-67
2022/05/24 09:04:36;;;;;;;;;;;14.20;99.90;;;;;;5075005;28;19924;-68
2022/05/24 09:07:07;;;;;;;;;;;14.20;99.90;;;;;;5082137;28;19921;-67
2022/05/24 09:09:39;;;;;;;;;;;14.30;99.90;;;;;;5083716;28;19920;-68
2022/05/24 09:12:13;;;;;;;;;;;14.30;99.90;;;;;;5083547;28;19921;-68
2022/05/24 09:14:44;;;;;;;;;;;14.40;99.90;;;;;;5083142;28;19925;-69
2022/05/24 09:17:14;;;;;;;;;;;14.50;99.90;;;;;;5079626;28;19943;-67
2022/05/24 09:19:42;;;;;;;;;;;14.60;99.90;;;;;;5064661;28;19920;-68
2022/05/24 09:22:10;;;;;;;;;;;14.70;99.90;;;;;;5064735;28;19928;-67
2022/05/24 09:24:41;;;;;;;;;;;14.70;99.90;;;;;;5067508;28;19920;-68
2022/05/24 09:27:09;;;;;;;;;;;14.80;99.90;;;;;;5063522;28;19975;-68
2022/05/24 09:29:36;;;;;;;;;;;14.90;99.90;;;;;;5067275;28;19921;-69
2022/05/24 09:32:09;;;;;;;;;;;14.90;99.90;;;;;;5067112;28;19921;-67
2022/05/24 09:34:37;;;;;;;;;;;14.90;99.90;;;;;;5066814;28;19921;-68
2022/05/24 09:37:05;;;;;;;;;;;14.90;99.90;;;;;;5066863;28;19927;-68
2022/05/24 09:39:33;;;;;;;;;;;14.90;99.90;;;;;;5067196;28;20361;-67
2022/05/24 09:42:01;;;;;;;;;;;14.90;99.90;;;;;;5066955;28;19927;-68
2022/05/24 09:44:28;;;;;;;;;;;15.00;99.90;;;;;;5074654;28;19920;-67
2022/05/24 09:46:55;;;;;;;;;;;15.00;99.90;;;;;;5086233;28;19921;-68
2022/05/24 09:49:25;;;;;;;;;;;15.00;99.90;;;;;;5086840;28;19920;-68
2022/05/24 09:51:55;;;;;;;;;;;15.10;99.90;;;;;;5086694;28;19927;-68
2022/05/24 09:54:24;;;;;;;;;;;15.10;99.90;;;;;;5086972;28;19927;-68
2022/05/24 09:57:06;;;;;;;;;;;15.10;99.90;;;;;;5085903;28;19928;-67
2022/05/24 09:59:33;;;;;;;;;;;15.20;99.90;;;;;;5084368;28;19927;-66
2022/05/24 10:02:21;;;;;;;;;;;15.20;99.90;;;;;;5078498;28;19926;-67
2022/05/24 10:04:50;;;;;;;;;;;15.20;99.90;;;;;;5079984;28;19920;-67
2022/05/24 10:07:21;;;;;;;;;;;15.20;99.90;;;;;;5086159;28;19927;-67
2022/05/24 10:09:55;;;;;;;;;;;15.10;99.90;;;;;;5086649;28;19956;-67
2022/05/24 10:12:28;;;;;;;;;;;15.10;99.90;;;;;;5086413;28;19927;-68
2022/05/24 10:15:01;;;;;;;;;;;15.20;99.90;;;;;;5086188;28;20212;-67
2022/05/24 10:17:29;;;;;;;;;;;15.20;99.90;;;;;;5080120;28;19959;-67
2022/05/24 10:20:02;;;;;;;;;;;15.40;99.90;;;;;;5066646;28;19928;-68
2022/05/24 10:22:34;;;;;;;;;;;15.50;99.90;;;;;;5066232;28;19921;-68
2022/05/24 10:25:04;;;;;;;;;;;15.50;99.90;;;;;;5065955;28;20208;-67
2022/05/24 10:27:40;;;;;;;;;;;15.70;99.90;;;;;;5065488;28;19921;-68
2022/05/24 10:30:11;;;;;;;;;;;16.00;99.90;;;;;;5065895;28;20148;-67
2022/05/24 10:38:28;;;;;;;;;;;16.40;99.90;;;;;;5065907;28;20155;-68
2022/05/24 10:41:03;;;;;;;;;;;16.50;99.90;;;;;;5066145;28;19921;-67
2022/05/24 10:43:41;;;;;;;;;;;16.30;99.90;;;;;;5066003;28;19921;-68
2022/05/24 10:46:11;;;;;;;;;;;16.30;99.90;;;;;;5064998;28;20212;-67
2022/05/24 10:48:42;;;;;;;;;;;16.30;99.90;;;;;;5065363;28;20192;-66
2022/05/24 10:51:13;;;;;;;;;;;16.40;99.90;;;;;;5065945;28;19943;-67
2022/05/24 10:53:44;;;;;;;;;;;16.40;99.90;;;;;;5065608;28;19920;-66
2022/05/24 10:56:28;;;;;;;;;;;16.40;99.90;;;;;;5064649;28;19987;-67
2022/05/24 10:58:57;;;;;;;;;;;16.40;99.90;;;;;;5065266;28;19927;-66
2022/05/24 11:01:25;;;;;;;;;;;16.30;99.90;;;;;;5070927;28;19951;-70
2022/05/24 11:03:55;;;;;;;;;;;16.30;99.90;;;;;;5076877;28;19988;-67
2022/05/24 11:06:26;;;;;;;;;;;16.30;99.90;;;;;;5064161;28;19921;-67
2022/05/24 11:08:58;;;;;;;;;;;16.40;99.90;;;;;;5064678;28;19927;-67
2022/05/24 11:11:27;;;;;;;;;;;16.50;99.90;;;;;;5064678;28;19921;-67
2022/05/24 11:13:57;;;;;;;;;;;16.60;99.90;;;;;;5064512;28;19921;-68
2022/05/24 11:16:29;;;;;;;;;;;16.70;99.90;;;;;;5061010;28;19925;-67
2022/05/24 11:18:56;;;;;;;;;;;16.90;99.90;;;;;;5081978;28;20176;-67
2022/05/24 11:21:26;;;;;;;;;;;17.30;99.90;;;;;;5084633;28;19920;-67
2022/05/24 11:23:56;;;;;;;;;;;17.50;99.90;;;;;;5080917;28;19920;-67
2022/05/24 11:26:25;;;;;;;;;;;17.80;99.90;;;;;;5071945;28;20120;-67
2022/05/24 11:28:52;;;;;;;;;;;18.00;99.90;;;;;;5084864;28;19920;-66
2022/05/24 11:31:24;;;;;;;;;;;18.10;99.90;;;;;;5084510;28;19955;-67
2022/05/24 11:33:52;;;;;;;;;;;18.30;99.90;;;;;;5084318;28;20150;-67
2022/05/24 11:36:49;;;;;;;;;;;18.40;99.90;;;;;;5083898;28;19920;-68
2022/05/24 11:39:24;;;;;;;;;;;18.40;99.90;;;;;;5039731;28;20001;-68
2022/05/24 11:42:10;;;;;;;;;;;18.10;99.90;;;;;;5066107;28;20191;-68
2022/05/24 11:44:37;;;;;;;;;;;17.90;99.90;;;;;;5122389;22;20215;-66
2022/05/24 11:47:04;;;;;;;;;;;17.80;99.90;;;;;;5097489;28;19947;-65
2022/05/24 11:50:04;;;;;;;;;;;17.90;99.90;;;;;;5105019;28;19920;-66
2022/05/24 11:52:43;;;;;;;;;;;18.00;99.90;;;;;;5097147;28;19935;-66
2022/05/24 11:55:11;;;;;;;;;;;18.10;99.90;;;;;;5102306;28;19920;-68
2022/05/24 11:57:41;;;;;;;;;;;17.90;99.90;;;;;;5101342;28;19920;-66
2022/05/24 12:00:09;;;;;;;;;;;17.90;99.90;;;;;;5103654;28;20274;-66
2022/05/24 12:08:27;;;;;;;;;;;18.20;99.90;;;;;;5101674;28;20139;-66
2022/05/24 12:11:08;;;;;;;;;;;18.80;99.90;;;;;;5099512;28;19938;-66
2022/05/24 12:13:38;;;;;;;;;;;19.20;99.90;;;;;;5103271;28;19928;-66
2022/05/24 12:16:06;;;;;;;;;;;19.60;99.90;;;;;;5102669;28;19932;-67
2022/05/24 12:18:38;;;;;;;;;;;19.60;99.90;;;;;;5101822;28;20085;-66
2022/05/24 12:21:04;;;;;;;;;;;20.00;99.90;;;;;;5102472;28;19951;-66
2022/05/24 12:23:35;;;;;;;;;;;20.20;99.90;;;;;;5102431;28;21472;-66
2022/05/24 12:26:04;;;;;;;;;;;20.30;99.90;;;;;;5103326;28;19920;-67
2022/05/24 12:28:42;;;;;;;;;;;20.20;99.90;;;;;;5099861;28;20142;-66
2022/05/24 12:31:15;;;;;;;;;;;20.20;99.90;;;;;;5104321;28;19924;-66
2022/05/24 12:33:45;;;;;;;;;;;20.30;99.90;;;;;;5103136;28;20007;-66
2022/05/24 12:36:21;;;;;;;;;;;20.20;99.90;;;;;;5102372;28;20261;-66
2022/05/24 12:38:48;;;;;;;;;;;20.20;99.90;;;;;;5107888;28;20111;-66
2022/05/24 12:41:18;;;;;;;;;;;20.00;99.90;;;;;;5109867;28;19920;-66
2022/05/24 12:43:59;;;;;;;;;;;19.90;99.90;;;;;;5100606;28;19923;-66
2022/05/24 12:46:29;;;;;;;;;;;19.80;99.90;;;;;;5103633;28;19965;-65
2022/05/24 12:49:00;;;;;;;;;;;19.30;99.90;;;;;;5103951;28;20216;-71
2022/05/24 12:51:28;;;;;;;;;;;19.40;99.90;;;;;;5083345;28;19968;-65
2022/05/24 12:53:55;;;;;;;;;;;19.60;99.90;;;;;;5097743;28;20176;-66
2022/05/24 12:56:24;;;;;;;;;;;19.70;99.90;;;;;;5118412;28;19947;-66
2022/05/24 12:58:52;;;;;;;;;;;20.10;99.90;;;;;;5104671;28;19924;-66
2022/05/24 13:01:21;;;;;;;;;;;20.50;99.90;;;;;;5102817;28;20237;-66
2022/05/24 13:03:51;;;;;;;;;;;20.60;99.90;;;;;;5102742;28;19927;-66
2022/05/24 13:06:25;;;;;;;;;;;20.50;99.90;;;;;;5102534;28;19922;-67
2022/05/24 13:09:10;;;;;;;;;;;20.50;99.90;;;;;;5103296;28;19920;-66
2022/05/24 13:11:39;;;;;;;;;;;20.50;99.90;;;;;;5102879;28;20212;-66
2022/05/24 13:14:06;;;;;;;;;;;20.10;99.90;;;;;;5100279;28;19942;-66
2022/05/24 13:16:33;;;;;;;;;;;19.90;99.90;;;;;;5102356;28;19920;-66
2022/05/24 13:19:02;;;;;;;;;;;20.20;99.90;;;;;;5094665;28;19932;-66
2022/05/24 13:21:31;;;;;;;;;;;20.30;99.90;;;;;;5102958;28;19994;-67
2022/05/24 13:24:07;;;;;;;;;;;20.10;99.90;;;;;;5102644;28;19920;-65
2022/05/24 13:26:34;;;;;;;;;;;20.00;99.90;;;;;;5102592;28;19949;-66
2022/05/24 13:29:20;;;;;;;;;;;19.90;99.90;;;;;;5102788;28;19928;-66
2022/05/24 13:34:33;;;;;;;;;;;20.00;99.90;;;;;;5106839;28;19931;-65
2022/05/24 13:37:00;;;;;;;;;;;20.40;99.90;;;;;;5102133;28;19927;-67
2022/05/24 13:39:29;;;;;;;;;;;20.70;99.90;;;;;;5102499;28;20207;-66
2022/05/24 13:41:58;;;;;;;;;;;21.10;99.90;;;;;;5102347;28;19928;-66
2022/05/24 13:44:28;;;;;;;;;;;21.40;99.90;;;;;;5102657;28;19920;-67
2022/05/24 13:47:00;;;;;;;;;;;21.70;99.90;;;;;;5102577;28;19931;-66
2022/05/24 13:49:28;;;;;;;;;;;21.80;99.90;;;;;;5111741;28;19926;-66
2022/05/24 13:51:55;;;;;;;;;;;21.80;99.90;;;;;;5103851;28;20609;-66
2022/05/24 13:54:32;;;;;;;;;;;21.70;99.90;;;;;;5102882;28;20231;-66
2022/05/24 13:57:00;;;;;;;;;;;21.60;99.90;;;;;;5101279;28;19944;-67
2022/05/24 13:59:28;;;;;;;;;;;21.70;99.90;;;;;;5107734;28;19920;-66
2022/05/24 14:01:56;;;;;;;;;;;21.80;99.90;;;;;;5105003;28;20246;-66
2022/05/24 14:04:24;;;;;;;;;;;21.90;99.90;;;;;;5106216;28;19928;-66
2022/05/24 14:06:52;;;;;;;;;;;22.30;99.90;;;;;;5107146;28;19935;-66
2022/05/24 14:09:19;;;;;;;;;;;22.30;99.90;;;;;;5102158;28;19928;-66
2022/05/24 14:11:50;;;;;;;;;;;22.10;99.90;;;;;;5105288;28;19926;-67
2022/05/24 14:14:17;;;;;;;;;;;22.30;99.90;;;;;;5103859;28;19935;-66
2022/05/24 14:16:45;;;;;;;;;;;22.30;99.90;;;;;;5105378;28;19920;-66
2022/05/24 14:19:12;;;;;;;;;;;22.20;99.90;;;;;;5120721;28;19927;-66
2022/05/24 14:21:40;;;;;;;;;;;22.20;99.90;;;;;;5126195;28;20238;-66
2022/05/24 14:24:12;;;;;;;;;;;22.20;99.90;;;;;;5126003;28;19920;-67
2022/05/24 14:26:39;;;;;;;;;;;22.30;99.90;;;;;;5125790;28;19924;-67
2022/05/24 14:29:06;;;;;;;;;;;22.40;99.90;;;;;;5123772;28;19926;-66
2022/05/24 14:31:33;;;;;;;;;;;22.30;99.90;;;;;;5118666;28;19965;-67
2022/05/24 14:34:03;;;;;;;;;;;22.10;99.90;;;;;;5100431;28;20046;-67
2022/05/24 14:36:30;;;;;;;;;;;22.10;99.90;;;;;;5105628;28;19920;-67
2022/05/24 14:38:57;;;;;;;;;;;22.60;99.90;;;;;;5103236;28;20154;-67
2022/05/24 14:41:23;;;;;;;;;;;22.90;99.90;;;;;;5103103;28;19942;-66
2022/05/24 14:43:51;;;;;;;;;;;22.90;99.90;;;;;;5105874;28;19926;-67
2022/05/24 14:46:18;;;;;;;;;;;22.90;99.90;;;;;;5105282;28;19935;-67
2022/05/24 14:48:46;;;;;;;;;;;23.00;99.90;;;;;;5107092;28;19920;-67
2022/05/24 14:51:14;;;;;;;;;;;22.90;99.90;;;;;;5107503;28;19919;-71
2022/05/24 14:53:41;;;;;;;;;;;23.10;99.90;;;;;;5105986;28;19926;-67
2022/05/24 14:56:08;;;;;;;;;;;23.10;99.90;;;;;;5105062;28;20199;-67
2022/05/24 14:58:35;;;;;;;;;;;23.20;99.90;;;;;;5105612;28;20211;-67
2022/05/24 15:01:02;;;;;;;;;;;23.30;99.90;;;;;;5105573;28;19927;-67
2022/05/24 15:03:28;;;;;;;;;;;23.50;99.90;;;;;;5105734;28;19920;-67
2022/05/24 15:05:55;;;;;;;;;;;23.20;99.90;;;;;;5105391;28;19920;-67
2022/05/24 15:16:36;;;;;;;;;;;22.00;99.90;;;;;;5104456;28;20230;-68
2022/05/24 15:19:03;;;;;;;;;;;21.90;99.90;;;;;;5087459;28;19981;-67
2022/05/24 15:21:31;;;;;;;;;;;22.00;99.90;;;;;;5104579;28;19923;-68
2022/05/24 15:24:01;;;;;;;;;;;22.10;99.90;;;;;;5105039;28;19971;-67
2022/05/24 15:26:30;;;;;;;;;;;22.30;99.90;;;;;;5100118;28;19921;-68